createdAt,value
2019-05-13T00:00:50.580Z,1.80
2019-05-13T00:02:00.364Z,1.70
2019-05-13T00:03:05.068Z,1.42
2019-05-13T00:04:10.678Z,1.87
2019-05-13T00:05:15.482Z,1.47
2019-05-13T00:06:21.031Z,1.47
2019-05-13T00:07:26.345Z,1.45
2019-05-13T00:08:33.795Z,1.35
2019-05-13T00:09:38.741Z,1.57
2019-05-13T00:10:44.383Z,1.82
2019-05-13T00:11:49.712Z,1.55
2019-05-13T00:12:55.587Z,1.98
2019-05-13T00:14:00.323Z,1.50
2019-05-13T00:15:05.406Z,1.70
2019-05-13T00:16:10.132Z,1.57
2019-05-13T00:17:15.390Z,1.60
2019-05-13T00:18:20.420Z,1.45
2019-05-13T00:19:25.838Z,1.57
2019-05-13T00:20:30.821Z,1.70
2019-05-13T00:21:36.357Z,1.60
2019-05-13T00:22:44.356Z,1.22
2019-05-13T00:23:49.306Z,1.82
2019-05-13T00:24:55.483Z,1.40
2019-05-13T00:26:03.580Z,1.50
2019-05-13T00:27:08.354Z,1.82
2019-05-13T00:28:15.039Z,1.50
2019-05-13T00:29:20.123Z,1.90
2019-05-13T00:30:25.655Z,1.80
2019-05-13T00:31:33.452Z,1.60
2019-05-13T00:32:38.675Z,1.55
2019-05-13T00:33:44.412Z,1.95
2019-05-13T00:34:52.916Z,1.80
2019-05-13T00:35:57.043Z,1.60
2019-05-13T00:37:08.849Z,1.50
2019-05-13T00:38:09.103Z,1.70
2019-05-13T00:39:15.364Z,1.92
2019-05-13T00:40:20.858Z,1.55
2019-05-13T00:41:26.394Z,1.37
2019-05-13T00:42:33.345Z,1.90
2019-05-13T00:43:39.068Z,1.67
2019-05-13T00:44:44.533Z,1.57
2019-05-13T00:45:50.453Z,1.32
2019-05-13T00:46:56.179Z,1.60
2019-05-13T00:48:04.216Z,1.50
2019-05-13T00:49:08.173Z,1.62
2019-05-13T00:50:14.166Z,1.67
2019-05-13T00:51:19.720Z,1.82
2019-05-13T00:52:25.343Z,1.60
2019-05-13T00:53:31.029Z,2.10
2019-05-13T00:54:36.892Z,2.20
2019-05-13T00:55:41.402Z,1.80
2019-05-13T00:56:47.343Z,2.00
2019-05-13T00:57:54.133Z,1.98
2019-05-13T00:58:59.902Z,1.30
2019-05-13T01:00:05.101Z,1.57
2019-05-13T01:01:10.956Z,2.17
2019-05-13T01:02:15.653Z,1.72
2019-05-13T01:03:21.249Z,1.67
2019-05-13T01:04:25.995Z,1.65
2019-05-13T01:05:34.085Z,1.82
2019-05-13T01:06:38.398Z,1.55
2019-05-13T01:07:44.660Z,1.70
2019-05-13T01:08:49.222Z,1.40
2019-05-13T01:09:54.616Z,1.57
2019-05-13T01:11:00.102Z,1.90
2019-05-13T01:12:05.393Z,1.82
2019-05-13T01:13:10.506Z,2.22
2019-05-13T01:14:16.038Z,1.70
2019-05-13T01:15:21.062Z,1.72
2019-05-13T01:16:26.394Z,1.92
2019-05-13T01:17:33.942Z,2.00
2019-05-13T01:18:39.039Z,1.57
2019-05-13T01:19:43.764Z,1.85
2019-05-13T01:20:49.058Z,1.70
2019-05-13T01:21:54.708Z,1.85
2019-05-13T01:22:59.773Z,2.02
2019-05-13T01:24:04.766Z,2.05
2019-05-13T01:25:14.350Z,1.90
2019-05-13T01:26:19.183Z,2.05
2019-05-13T01:27:25.317Z,1.98
2019-05-13T01:28:30.596Z,2.00
2019-05-13T01:29:36.742Z,1.77
2019-05-13T01:30:43.821Z,1.72
2019-05-13T01:31:49.381Z,2.00
2019-05-13T01:32:54.136Z,2.12
2019-05-13T01:33:59.702Z,1.90
2019-05-13T01:35:04.702Z,2.00
2019-05-13T01:36:10.267Z,1.70
2019-05-13T01:37:15.923Z,1.80
2019-05-13T01:38:23.884Z,1.90
2019-05-13T01:39:28.239Z,1.95
2019-05-13T01:40:34.962Z,1.98
2019-05-13T01:41:40.321Z,1.77
2019-05-13T01:42:45.354Z,2.00
2019-05-13T01:43:50.773Z,2.08
2019-05-13T01:44:56.673Z,1.85
2019-05-13T01:46:04.211Z,1.90
2019-05-13T01:47:09.192Z,1.98
2019-05-13T01:48:14.416Z,1.98
2019-05-13T01:49:20.171Z,1.92
2019-05-13T01:50:25.140Z,1.80
2019-05-13T01:51:30.689Z,1.95
2019-05-13T01:52:35.690Z,2.30
2019-05-13T01:53:41.228Z,1.80
2019-05-13T01:54:46.541Z,2.20
2019-05-13T01:55:53.295Z,1.82
2019-05-13T01:56:58.692Z,2.10
2019-05-13T01:58:04.644Z,1.70
2019-05-13T01:59:10.364Z,1.87
2019-05-13T02:00:15.707Z,2.27
2019-05-13T02:01:20.503Z,2.42
2019-05-13T02:02:26.348Z,1.80
2019-05-13T02:03:33.797Z,2.25
2019-05-13T02:04:39.253Z,1.75
2019-05-13T02:05:44.511Z,1.92
2019-05-13T02:06:50.799Z,1.98
2019-05-13T02:08:00.427Z,2.02
2019-05-13T02:09:03.987Z,1.90
2019-05-13T02:10:10.005Z,2.20
2019-05-13T02:11:15.600Z,2.12
2019-05-13T02:12:20.422Z,1.77
2019-05-13T02:13:25.988Z,1.85
2019-05-13T02:14:33.476Z,1.95
2019-05-13T02:15:38.561Z,1.90
2019-05-13T02:16:44.529Z,2.33
2019-05-13T02:17:50.872Z,2.55
2019-05-13T02:18:56.138Z,2.10
2019-05-13T02:20:03.983Z,2.20
2019-05-13T02:21:08.962Z,2.45
2019-05-13T02:22:14.841Z,1.90
2019-05-13T02:23:20.104Z,2.12
2019-05-13T02:24:25.849Z,1.85
2019-05-13T02:25:31.130Z,1.80
2019-05-13T02:26:36.675Z,1.92
2019-05-13T02:27:43.653Z,2.02
2019-05-13T02:28:48.985Z,1.80
2019-05-13T02:29:54.288Z,2.30
2019-05-13T02:31:00.402Z,2.27
2019-05-13T02:32:05.291Z,2.20
2019-05-13T02:33:13.144Z,2.08
2019-05-13T02:34:17.793Z,1.87
2019-05-13T02:35:23.348Z,2.02
2019-05-13T02:36:28.299Z,1.80
2019-05-13T02:37:34.488Z,2.00
2019-05-13T02:38:42.703Z,2.12
2019-05-13T02:39:47.770Z,2.20
2019-05-13T02:40:53.275Z,1.90
2019-05-13T02:42:02.954Z,2.33
2019-05-13T02:43:05.565Z,2.20
2019-05-13T02:44:12.225Z,2.10
2019-05-13T02:45:17.411Z,2.40
2019-05-13T02:46:22.816Z,2.22
2019-05-13T02:47:28.847Z,2.30
2019-05-13T02:48:34.113Z,2.00
2019-05-13T02:49:42.123Z,2.02
2019-05-13T02:50:46.715Z,2.47
2019-05-13T02:51:54.572Z,2.33
2019-05-13T02:53:02.110Z,2.35
2019-05-13T02:54:05.356Z,2.12
2019-05-13T02:55:12.348Z,2.60
2019-05-13T02:56:17.712Z,1.92
2019-05-13T02:57:23.514Z,2.10
2019-05-13T02:58:28.868Z,2.42
2019-05-13T02:59:34.391Z,1.98
2019-05-13T03:00:38.841Z,2.52
2019-05-13T03:01:44.155Z,2.10
2019-05-13T03:02:52.255Z,2.37
2019-05-13T03:03:56.223Z,2.40
2019-05-13T03:05:03.158Z,2.15
2019-05-13T03:06:09.435Z,1.87
2019-05-13T03:07:15.089Z,2.20
2019-05-13T03:08:35.206Z,2.17
2019-05-13T03:09:27.643Z,2.33
2019-05-13T03:10:33.476Z,2.17
2019-05-13T03:11:41.548Z,2.15
2019-05-13T03:12:45.964Z,2.05
2019-05-13T03:13:52.996Z,2.22
2019-05-13T03:14:58.487Z,2.05
2019-05-13T03:16:15.459Z,2.40
2019-05-13T03:17:32.792Z,2.08
2019-05-13T03:18:37.381Z,2.30
2019-05-13T03:19:43.548Z,2.22
2019-05-13T03:20:52.664Z,2.17
2019-05-13T03:21:56.333Z,2.70
2019-05-13T03:23:02.963Z,2.37
2019-05-13T03:24:07.729Z,2.12
2019-05-13T03:25:13.201Z,2.67
2019-05-13T03:26:18.513Z,2.35
2019-05-13T03:27:25.127Z,2.62
2019-05-13T03:28:33.604Z,2.40
2019-05-13T03:29:37.909Z,2.45
2019-05-13T03:30:45.703Z,2.40
2019-05-13T03:31:54.939Z,2.40
2019-05-13T03:33:02.164Z,2.45
2019-05-13T03:34:07.116Z,2.35
2019-05-13T03:35:16.384Z,2.42
2019-05-13T03:36:18.494Z,2.45
2019-05-13T03:37:26.815Z,2.80
2019-05-13T03:38:32.853Z,2.50
2019-05-13T03:39:38.888Z,2.87
2019-05-13T03:40:43.579Z,2.83
2019-05-13T03:41:53.948Z,2.83
2019-05-13T03:43:02.688Z,2.62
2019-05-13T03:44:13.382Z,2.62
2019-05-13T03:45:18.099Z,2.98
2019-05-13T03:46:24.984Z,2.45
2019-05-13T03:47:32.848Z,2.85
2019-05-13T03:48:42.854Z,3.05
2019-05-13T03:49:47.947Z,3.00
2019-05-13T03:50:53.924Z,3.15
2019-05-13T03:51:58.751Z,3.10
2019-05-13T03:53:04.089Z,3.15
2019-05-13T03:54:09.081Z,2.60
2019-05-13T03:55:14.926Z,2.72
2019-05-13T03:56:22.654Z,3.22
2019-05-13T03:57:27.915Z,3.02
2019-05-13T03:58:33.022Z,2.37
2019-05-13T03:59:38.813Z,3.02
2019-05-13T04:00:44.089Z,2.92
2019-05-13T04:01:52.436Z,2.65
2019-05-13T04:02:56.752Z,2.95
2019-05-13T04:04:03.422Z,2.40
2019-05-13T04:05:08.298Z,2.60
2019-05-13T04:06:14.577Z,2.87
2019-05-13T04:07:19.554Z,2.65
2019-05-13T04:08:25.166Z,2.65
2019-05-13T04:09:35.418Z,2.60
2019-05-13T04:10:38.517Z,2.65
2019-05-13T04:11:44.107Z,2.37
2019-05-13T04:12:52.400Z,2.80
2019-05-13T04:13:55.845Z,2.50
2019-05-13T04:15:03.571Z,2.72
2019-05-13T04:16:08.387Z,2.65
2019-05-13T04:17:14.732Z,2.67
2019-05-13T04:18:23.283Z,2.75
2019-05-13T04:19:27.072Z,2.52
2019-05-13T04:20:33.269Z,2.90
2019-05-13T04:21:42.697Z,2.85
2019-05-13T04:22:45.638Z,2.80
2019-05-13T04:23:53.100Z,2.92
2019-05-13T04:24:58.096Z,3.17
2019-05-13T04:26:03.811Z,2.80
2019-05-13T04:27:09.062Z,2.65
2019-05-13T04:28:15.251Z,3.08
2019-05-13T04:29:23.161Z,3.20
2019-05-13T04:30:27.863Z,2.87
2019-05-13T04:31:33.267Z,3.58
2019-05-13T04:32:39.802Z,3.47
2019-05-13T04:33:44.611Z,3.10
2019-05-13T04:34:53.020Z,3.20
2019-05-13T04:35:57.849Z,3.15
2019-05-13T04:37:03.517Z,3.65
2019-05-13T04:38:10.239Z,3.75
2019-05-13T04:39:35.183Z,3.87
2019-05-13T04:40:23.596Z,3.00
2019-05-13T04:41:32.968Z,3.45
2019-05-13T04:42:36.273Z,3.27
2019-05-13T04:43:43.513Z,3.30
2019-05-13T04:44:49.156Z,3.12
2019-05-13T04:45:55.487Z,3.45
2019-05-13T04:47:03.538Z,3.62
2019-05-13T04:48:08.093Z,2.85
2019-05-13T04:49:13.396Z,2.80
2019-05-13T04:50:22.057Z,3.20
2019-05-13T04:51:26.026Z,3.08
2019-05-13T04:52:32.988Z,2.90
2019-05-13T04:53:38.176Z,3.05
2019-05-13T04:54:44.022Z,3.50
2019-05-13T04:55:52.652Z,3.10
2019-05-13T04:56:57.615Z,3.45
2019-05-13T04:58:03.786Z,2.95
2019-05-13T04:59:12.442Z,3.47
2019-05-13T05:00:22.557Z,3.98
2019-05-13T05:02:05.022Z,2.90
2019-05-13T05:03:41.262Z,3.20
2019-05-13T05:04:52.506Z,2.95
2019-05-13T05:06:25.726Z,3.70
2019-05-13T05:08:08.500Z,3.37
2019-05-13T05:09:42.892Z,3.40
2019-05-13T05:11:04.923Z,2.95
2019-05-13T05:12:47.488Z,3.20
2019-05-13T05:14:12.282Z,3.42
2019-05-13T05:16:03.014Z,3.40
2019-05-13T05:17:38.217Z,3.27
2019-05-13T05:19:38.800Z,3.52
2019-05-13T05:20:52.076Z,3.30
2019-05-13T05:22:13.478Z,3.42
2019-05-13T05:23:46.153Z,3.17
2019-05-13T05:25:01.662Z,3.17
2019-05-13T05:26:31.287Z,3.58
2019-05-13T05:28:02.124Z,3.62
2019-05-13T05:29:56.356Z,3.50
2019-05-13T05:31:28.399Z,3.37
2019-05-13T05:33:16.135Z,3.30
2019-05-13T05:34:45.325Z,2.95
2019-05-13T05:36:21.675Z,3.70
2019-05-13T05:37:49.537Z,3.67
2019-05-13T05:39:12.352Z,3.65
2019-05-13T05:40:30.507Z,3.60
2019-05-13T05:41:28.186Z,3.40
2019-05-13T05:42:36.600Z,3.37
2019-05-13T05:43:45.541Z,3.75
2019-05-13T05:44:52.383Z,3.98
2019-05-13T05:45:57.428Z,3.58
2019-05-13T05:47:03.834Z,3.67
2019-05-13T05:48:08.734Z,3.62
2019-05-13T05:49:14.285Z,4.08
2019-05-13T05:50:22.823Z,3.65
2019-05-13T05:51:28.461Z,3.55
2019-05-13T05:52:36.374Z,3.60
2019-05-13T05:53:44.132Z,3.77
2019-05-13T05:54:52.332Z,3.52
2019-05-13T05:55:59.558Z,3.65
2019-05-13T05:57:06.067Z,3.70
2019-05-13T05:58:12.980Z,3.40
2019-05-13T05:59:21.745Z,3.02
2019-05-13T06:00:27.130Z,3.52
2019-05-13T06:01:33.128Z,4.30
2019-05-13T06:02:42.515Z,3.20
2019-05-13T06:03:47.738Z,3.60
2019-05-13T06:04:53.847Z,3.75
2019-05-13T06:05:58.788Z,3.50
2019-05-13T06:07:04.600Z,3.52
2019-05-13T06:08:11.437Z,3.55
2019-05-13T06:09:16.599Z,4.10
2019-05-13T06:10:22.580Z,3.33
2019-05-13T06:11:28.102Z,3.02
2019-05-13T06:12:34.729Z,3.42
2019-05-13T06:13:42.106Z,3.67
2019-05-13T06:14:47.412Z,3.22
2019-05-13T06:15:52.585Z,3.50
2019-05-13T06:16:58.723Z,3.98
2019-05-13T06:18:03.830Z,3.12
2019-05-13T06:19:12.079Z,3.95
2019-05-13T06:20:17.019Z,3.35
2019-05-13T06:21:22.431Z,3.67
2019-05-13T06:22:28.039Z,3.50
2019-05-13T06:23:33.242Z,3.42
2019-05-13T06:24:41.871Z,3.50
2019-05-13T06:25:46.990Z,2.90
2019-05-13T06:26:52.178Z,3.52
2019-05-13T06:27:57.298Z,3.37
2019-05-13T06:29:03.299Z,3.25
2019-05-13T06:30:08.354Z,3.60
2019-05-13T06:31:14.333Z,3.17
2019-05-13T06:32:25.378Z,3.33
2019-05-13T06:33:28.003Z,3.37
2019-05-13T06:34:33.901Z,3.70
2019-05-13T06:35:42.601Z,3.55
2019-05-13T06:36:46.882Z,3.50
2019-05-13T06:37:55.197Z,3.30
2019-05-13T06:39:02.261Z,3.95
2019-05-13T06:40:07.442Z,3.33
2019-05-13T06:41:14.842Z,3.27
2019-05-13T06:42:22.270Z,3.42
2019-05-13T06:43:27.613Z,3.20
2019-05-13T06:44:33.783Z,3.50
2019-05-13T06:45:39.028Z,3.65
2019-05-13T06:46:44.734Z,3.22
2019-05-13T06:47:52.129Z,3.52
2019-05-13T06:48:58.361Z,3.65
2019-05-13T06:50:03.638Z,3.08
2019-05-13T06:51:08.720Z,3.30
2019-05-13T06:52:14.896Z,3.30
2019-05-13T06:53:21.787Z,3.27
2019-05-13T06:54:27.846Z,2.98
2019-05-13T06:55:32.893Z,3.52
2019-05-13T06:56:37.813Z,3.22
2019-05-13T06:57:43.458Z,3.22
2019-05-13T06:58:48.484Z,3.00
2019-05-13T06:59:54.311Z,3.52
2019-05-13T07:01:03.141Z,3.27
2019-05-13T07:02:06.133Z,3.47
2019-05-13T07:03:12.702Z,3.40
2019-05-13T07:04:17.905Z,3.40
2019-05-13T07:05:23.246Z,3.52
2019-05-13T07:06:28.611Z,3.27
2019-05-13T07:07:33.540Z,3.02
2019-05-13T07:08:41.689Z,3.90
2019-05-13T07:09:46.805Z,3.05
2019-05-13T07:10:52.591Z,3.08
2019-05-13T07:11:57.564Z,3.65
2019-05-13T07:13:02.882Z,3.58
2019-05-13T07:14:08.353Z,3.70
2019-05-13T07:15:13.350Z,3.25
2019-05-13T07:16:17.997Z,3.47
2019-05-13T07:17:23.315Z,3.80
2019-05-13T07:18:28.543Z,3.52
2019-05-13T07:19:34.419Z,3.45
2019-05-13T07:20:42.387Z,3.75
2019-05-13T07:21:46.712Z,3.50
2019-05-13T07:22:53.340Z,2.95
2019-05-13T07:23:58.911Z,3.62
2019-05-13T07:25:04.436Z,3.37
2019-05-13T07:26:12.156Z,3.47
2019-05-13T07:27:17.558Z,3.47
2019-05-13T07:28:23.526Z,3.52
2019-05-13T07:29:32.166Z,3.10
2019-05-13T07:30:42.501Z,3.25
2019-05-13T07:31:47.841Z,3.27
2019-05-13T07:32:53.215Z,2.90
2019-05-13T07:33:58.689Z,3.30
2019-05-13T07:35:04.499Z,3.47
2019-05-13T07:36:12.695Z,3.47
2019-05-13T07:37:18.146Z,2.67
2019-05-13T07:38:24.604Z,2.35
2019-05-13T07:39:32.751Z,2.70
2019-05-13T07:40:37.364Z,3.08
2019-05-13T07:41:43.395Z,3.30
2019-05-13T07:42:49.022Z,3.45
2019-05-13T07:43:57.073Z,3.37
2019-05-13T07:45:02.562Z,3.52
2019-05-13T07:46:07.669Z,3.60
2019-05-13T07:47:16.046Z,2.98
2019-05-13T07:48:27.612Z,3.10
2019-05-13T07:49:28.336Z,3.15
2019-05-13T07:50:33.994Z,2.90
2019-05-13T07:51:38.897Z,2.80
2019-05-13T07:52:43.805Z,3.05
2019-05-13T07:53:51.761Z,2.75
2019-05-13T07:54:56.419Z,2.87
2019-05-13T07:56:02.104Z,3.05
2019-05-13T07:57:07.630Z,3.08
2019-05-13T07:58:12.851Z,2.70
2019-05-13T07:59:18.511Z,2.55
2019-05-13T08:00:23.554Z,2.70
2019-05-13T08:01:28.986Z,2.90
2019-05-13T08:02:34.215Z,2.80
2019-05-13T08:03:42.005Z,2.92
2019-05-13T08:04:49.193Z,2.77
2019-05-13T08:05:53.744Z,2.92
2019-05-13T08:07:01.621Z,3.02
2019-05-13T08:08:05.804Z,2.50
2019-05-13T08:09:12.776Z,2.87
2019-05-13T08:10:17.456Z,2.85
2019-05-13T08:11:23.730Z,3.05
2019-05-13T08:12:32.066Z,2.80
2019-05-13T08:13:37.992Z,2.65
2019-05-13T08:14:43.865Z,2.60
2019-05-13T08:15:48.786Z,2.85
2019-05-13T08:16:53.978Z,2.40
2019-05-13T08:18:02.001Z,2.72
2019-05-13T08:19:06.632Z,2.30
2019-05-13T08:20:12.720Z,2.27
2019-05-13T08:21:18.336Z,2.20
2019-05-13T08:22:23.285Z,2.40
2019-05-13T08:23:28.386Z,2.33
2019-05-13T08:24:33.267Z,2.45
2019-05-13T08:25:38.775Z,2.30
2019-05-13T08:26:48.160Z,2.05
2019-05-13T08:27:51.455Z,2.42
2019-05-13T08:29:01.964Z,2.42
2019-05-13T08:30:04.677Z,2.77
2019-05-13T08:31:11.933Z,2.20
2019-05-13T08:32:17.261Z,2.45
2019-05-13T08:33:22.651Z,2.67
2019-05-13T08:34:28.170Z,2.65
2019-05-13T08:35:33.340Z,2.12
2019-05-13T08:36:39.728Z,2.60
2019-05-13T08:37:46.016Z,2.72
2019-05-13T08:38:52.100Z,2.12
2019-05-13T08:40:01.358Z,2.20
2019-05-13T08:41:09.844Z,2.05
2019-05-13T08:42:19.434Z,2.37
2019-05-13T08:43:22.589Z,2.47
2019-05-13T08:44:27.116Z,2.60
2019-05-13T08:45:32.217Z,2.47
2019-05-13T08:46:37.207Z,2.10
2019-05-13T08:47:42.912Z,2.22
2019-05-13T08:48:48.193Z,2.10
2019-05-13T08:49:53.820Z,1.85
2019-05-13T08:50:58.817Z,1.85
2019-05-13T08:52:04.222Z,1.90
2019-05-13T08:53:08.954Z,2.08
2019-05-13T08:54:13.788Z,1.75
2019-05-13T08:55:21.437Z,2.10
2019-05-13T08:56:26.831Z,2.17
2019-05-13T08:57:31.982Z,2.42
2019-05-13T08:58:37.574Z,2.00
2019-05-13T08:59:42.553Z,1.92
2019-05-13T09:00:53.311Z,2.05
2019-05-13T09:01:58.367Z,1.62
2019-05-13T09:03:06.210Z,1.67
2019-05-13T09:04:11.849Z,1.98
2019-05-13T09:05:17.433Z,1.77
2019-05-13T09:06:22.439Z,2.00
2019-05-13T09:07:27.764Z,2.00
2019-05-13T09:08:32.385Z,2.37
2019-05-13T09:09:38.118Z,2.00
2019-05-13T09:10:43.029Z,1.90
2019-05-13T09:11:48.736Z,1.87
2019-05-13T09:12:54.021Z,1.87
2019-05-13T09:14:02.045Z,1.70
2019-05-13T09:15:06.952Z,1.70
2019-05-13T09:16:13.299Z,1.70
2019-05-13T09:17:21.225Z,1.57
2019-05-13T09:18:26.265Z,1.82
2019-05-13T09:19:32.535Z,1.72
2019-05-13T09:20:41.679Z,1.90
2019-05-13T09:21:46.775Z,1.90
2019-05-13T09:22:52.333Z,1.57
2019-05-13T09:23:57.822Z,1.70
2019-05-13T09:25:02.989Z,2.30
2019-05-13T09:26:07.880Z,1.80
2019-05-13T09:27:13.266Z,1.60
2019-05-13T09:28:18.746Z,2.10
2019-05-13T09:29:24.430Z,1.40
2019-05-13T09:30:31.599Z,1.80
2019-05-13T09:31:37.329Z,2.25
2019-05-13T09:32:42.778Z,1.92
2019-05-13T09:33:47.976Z,1.70
2019-05-13T09:34:53.073Z,1.90
2019-05-13T09:35:57.936Z,2.00
2019-05-13T09:37:03.276Z,2.15
2019-05-13T09:38:09.051Z,1.67
2019-05-13T09:39:13.943Z,1.98
2019-05-13T09:40:22.181Z,1.37
2019-05-13T09:41:26.847Z,1.62
2019-05-13T09:42:47.545Z,1.70
2019-05-13T09:43:41.838Z,1.70
2019-05-13T09:44:46.906Z,1.47
2019-05-13T09:45:52.422Z,2.10
2019-05-13T09:46:58.014Z,1.75
2019-05-13T09:48:03.569Z,1.87
2019-05-13T09:49:18.632Z,1.70
2019-05-13T09:50:28.406Z,1.82
2019-05-13T09:51:23.079Z,2.05
2019-05-13T09:52:27.994Z,2.05
2019-05-13T09:53:33.731Z,1.98
2019-05-13T09:54:38.648Z,1.70
2019-05-13T09:55:43.713Z,1.87
2019-05-13T09:56:48.964Z,1.65
2019-05-13T09:57:54.072Z,1.35
2019-05-13T09:59:01.526Z,2.00
2019-05-13T10:00:06.116Z,1.80
2019-05-13T10:01:12.394Z,1.77
2019-05-13T10:02:17.975Z,1.90
2019-05-13T10:03:28.732Z,2.08
2019-05-13T10:04:31.868Z,1.47
2019-05-13T10:05:36.738Z,1.60
2019-05-13T10:06:42.379Z,1.70
2019-05-13T10:07:47.892Z,1.47
2019-05-13T10:08:53.122Z,1.70
2019-05-13T10:09:58.002Z,1.47
2019-05-13T10:11:03.372Z,1.60
2019-05-13T10:12:08.735Z,1.57
2019-05-13T10:13:15.642Z,1.57
2019-05-13T10:14:22.856Z,1.50
2019-05-13T10:15:28.109Z,1.52
2019-05-13T10:16:33.843Z,1.50
2019-05-13T10:17:42.450Z,1.32
2019-05-13T10:18:46.096Z,1.60
2019-05-13T10:19:52.131Z,1.55
2019-05-13T10:20:59.130Z,1.40
2019-05-13T10:22:05.146Z,1.30
2019-05-13T10:23:12.597Z,1.80
2019-05-13T10:24:17.465Z,1.60
2019-05-13T10:25:22.700Z,1.37
2019-05-13T10:26:28.018Z,1.42
2019-05-13T10:27:33.265Z,1.80
2019-05-13T10:28:39.568Z,1.60
2019-05-13T10:29:46.280Z,1.70
2019-05-13T10:30:53.146Z,1.90
2019-05-13T10:31:58.396Z,2.05
2019-05-13T10:33:03.840Z,1.87
2019-05-13T10:34:09.005Z,1.92
2019-05-13T10:35:14.163Z,2.02
2019-05-13T10:36:22.044Z,1.90
2019-05-13T10:37:26.586Z,2.12
2019-05-13T10:38:32.411Z,1.65
2019-05-13T10:39:38.090Z,2.20
2019-05-13T10:40:43.365Z,2.37
2019-05-13T10:41:48.598Z,2.02
2019-05-13T10:42:53.808Z,2.00
2019-05-13T10:43:59.310Z,1.92
2019-05-13T10:45:04.326Z,1.85
2019-05-13T10:46:12.751Z,2.17
2019-05-13T10:47:16.327Z,1.70
2019-05-13T10:48:22.209Z,1.82
2019-05-13T10:49:27.421Z,1.90
2019-05-13T10:50:32.756Z,1.98
2019-05-13T10:51:37.903Z,1.85
2019-05-13T10:52:44.029Z,2.02
2019-05-13T10:53:52.478Z,1.90
2019-05-13T10:54:57.075Z,1.50
2019-05-13T10:56:03.223Z,1.60
2019-05-13T10:57:08.396Z,1.60
2019-05-13T10:58:13.977Z,2.02
2019-05-13T10:59:19.624Z,2.02
2019-05-13T11:00:42.388Z,1.90
2019-05-13T11:10:13.383Z,1.70
2019-05-13T11:11:17.943Z,1.70
2019-05-13T11:12:28.026Z,2.00
2019-05-13T11:13:49.732Z,1.90
2019-05-13T11:14:36.472Z,2.02
2019-05-13T11:15:45.315Z,1.80
2019-05-13T11:16:52.179Z,2.17
2019-05-13T11:17:56.407Z,1.87
2019-05-13T11:19:02.904Z,1.62
2019-05-13T11:20:08.039Z,1.67
2019-05-13T11:21:13.225Z,1.92
2019-05-13T11:22:18.364Z,2.02
2019-05-13T11:23:23.549Z,1.92
2019-05-13T11:24:28.914Z,1.67
2019-05-13T11:25:34.210Z,1.72
2019-05-13T11:26:41.841Z,1.85
2019-05-13T11:27:46.965Z,1.60
2019-05-13T11:28:54.173Z,1.95
2019-05-13T11:29:59.173Z,1.70
2019-05-13T11:31:04.423Z,1.85
2019-05-13T11:32:09.446Z,2.08
2019-05-13T11:33:15.263Z,2.00
2019-05-13T11:34:22.109Z,1.87
2019-05-13T11:35:27.713Z,2.00
2019-05-13T11:36:33.692Z,1.70
2019-05-13T11:37:39.445Z,2.05
2019-05-13T11:38:44.625Z,1.65
2019-05-13T11:39:51.680Z,2.15
2019-05-13T11:40:56.783Z,2.20
2019-05-13T11:42:02.459Z,1.98
2019-05-13T11:43:07.750Z,1.90
2019-05-13T11:44:16.646Z,2.95
2019-05-13T11:45:22.300Z,2.20
2019-05-13T11:46:28.387Z,1.95
2019-05-13T11:48:17.381Z,2.35
2019-05-13T11:49:22.413Z,2.40
2019-05-13T11:50:28.029Z,2.20
2019-05-13T11:51:32.777Z,2.00
2019-05-13T11:52:39.081Z,1.87
2019-05-13T11:53:45.422Z,1.92
2019-05-13T11:54:53.747Z,1.52
2019-05-13T11:55:57.117Z,1.72
2019-05-13T11:57:06.130Z,2.00
2019-05-13T11:58:13.530Z,1.80
2019-05-13T11:59:17.262Z,1.80
2019-05-13T12:00:52.364Z,1.80
2019-05-13T12:01:56.137Z,1.82
2019-05-13T12:03:04.190Z,1.90
2019-05-13T12:04:09.052Z,1.85
2019-05-13T12:05:13.902Z,1.87
2019-05-13T12:06:23.149Z,1.82
2019-05-13T12:07:26.684Z,2.02
2019-05-13T12:08:33.898Z,1.80
2019-05-13T12:09:39.026Z,2.20
2019-05-13T12:10:44.308Z,2.10
2019-05-13T12:11:49.411Z,1.52
2019-05-13T12:12:54.485Z,1.70
2019-05-13T12:13:59.998Z,2.10
2019-05-13T12:15:25.849Z,1.90
2019-05-13T12:16:13.174Z,1.40
2019-05-13T12:17:18.753Z,1.90
2019-05-13T12:18:24.095Z,1.72
2019-05-13T12:19:29.058Z,1.52
2019-05-13T12:20:33.851Z,1.80
2019-05-13T12:21:43.382Z,1.60
2019-05-13T12:22:46.454Z,1.90
2019-05-13T12:23:53.501Z,1.80
2019-05-13T12:24:58.712Z,2.10
2019-05-13T12:26:06.230Z,1.80
2019-05-13T12:27:11.009Z,1.60
2019-05-13T12:28:17.387Z,1.70
2019-05-13T12:29:22.315Z,1.90
2019-05-13T12:30:27.378Z,1.80
2019-05-13T12:31:33.797Z,2.02
2019-05-13T12:32:42.807Z,1.65
2019-05-13T12:33:45.840Z,1.80
2019-05-13T12:34:52.723Z,2.00
2019-05-13T12:35:58.148Z,1.70
2019-05-13T12:37:04.589Z,1.67
2019-05-13T12:38:12.971Z,2.20
2019-05-13T12:39:17.108Z,2.00
2019-05-13T12:40:23.077Z,1.60
2019-05-13T12:41:32.776Z,1.77
2019-05-13T12:42:42.744Z,1.80
2019-05-13T12:43:43.121Z,1.90
2019-05-13T12:45:04.043Z,1.70
2019-05-13T12:45:57.934Z,1.70
2019-05-13T12:47:03.314Z,1.85
2019-05-13T12:48:08.786Z,1.50
2019-05-13T12:49:14.500Z,1.75
2019-05-13T12:50:23.670Z,1.62
2019-05-13T12:51:27.336Z,1.72
2019-05-13T12:52:32.887Z,2.05
2019-05-13T12:53:37.863Z,1.72
2019-05-13T12:54:44.116Z,1.72
2019-05-13T12:55:53.852Z,1.98
2019-05-13T12:56:56.880Z,1.70
2019-05-13T12:58:02.658Z,1.62
2019-05-13T12:59:08.526Z,1.87
2019-05-13T13:00:13.551Z,2.08
2019-05-13T13:01:19.085Z,2.10
2019-05-13T13:02:24.097Z,2.30
2019-05-13T13:03:29.170Z,2.35
2019-05-13T13:04:33.928Z,1.87
2019-05-13T13:05:42.912Z,2.58
2019-05-13T13:06:46.379Z,2.10
2019-05-13T13:08:16.027Z,2.00
2019-05-13T13:08:59.409Z,1.62
2019-05-13T13:10:04.754Z,2.17
2019-05-13T13:11:09.651Z,1.85
2019-05-13T13:12:15.141Z,1.77
2019-05-13T13:13:23.167Z,1.80
2019-05-13T13:14:34.919Z,1.80
2019-05-13T13:15:41.715Z,1.82
2019-05-13T13:16:42.433Z,1.75
2019-05-13T13:17:47.738Z,1.87
2019-05-13T13:18:53.486Z,2.10
2019-05-13T13:20:05.895Z,1.60
2019-05-13T13:21:07.747Z,1.60
2019-05-13T13:22:13.678Z,1.80
2019-05-13T13:23:23.157Z,1.80
2019-05-13T13:24:26.546Z,1.60
2019-05-13T13:25:33.888Z,1.95
2019-05-13T13:26:38.300Z,1.92
2019-05-13T13:28:09.019Z,1.75
2019-05-13T13:28:55.913Z,1.90
2019-05-13T13:30:03.390Z,1.75
2019-05-13T13:31:04.732Z,1.60
2019-05-13T13:32:13.387Z,1.80
2019-05-13T13:33:17.352Z,2.47
2019-05-13T13:34:26.078Z,2.70
2019-05-13T13:35:32.942Z,2.00
2019-05-13T13:36:36.618Z,1.70
2019-05-13T13:37:45.771Z,1.90
2019-05-13T13:38:48.776Z,1.50
2019-05-13T13:39:55.081Z,1.95
2019-05-13T13:41:04.000Z,1.67
2019-05-13T13:42:07.487Z,1.70
2019-05-13T13:43:13.128Z,1.50
2019-05-13T13:44:18.827Z,1.67
2019-05-13T13:45:24.427Z,1.82
2019-05-13T13:46:41.927Z,1.52
2019-05-13T13:47:36.718Z,1.80
2019-05-13T13:48:43.816Z,1.87
2019-05-13T13:49:53.262Z,1.70
2019-05-13T13:50:56.460Z,1.77
2019-05-13T13:52:02.620Z,1.75
2019-05-13T13:53:08.116Z,1.80
2019-05-13T13:54:13.425Z,1.52
2019-05-13T13:55:17.896Z,1.70
2019-05-13T13:56:25.220Z,1.90
2019-05-13T13:57:32.521Z,1.98
2019-05-13T13:58:36.912Z,2.15
2019-05-13T14:00:14.803Z,3.05
2019-05-13T14:01:01.822Z,2.60
2019-05-13T14:01:56.890Z,2.15
2019-05-13T14:03:06.548Z,1.80
2019-05-13T14:04:09.104Z,1.70
2019-05-13T14:05:14.508Z,1.92
2019-05-13T14:07:20.371Z,1.55
2019-05-13T14:07:34.789Z,2.12
2019-05-13T14:08:36.946Z,1.77
2019-05-13T14:09:43.238Z,1.82
2019-05-13T14:10:48.015Z,1.70
2019-05-13T14:11:53.839Z,1.85
2019-05-13T14:13:02.318Z,1.90
2019-05-13T14:14:05.331Z,1.62
2019-05-13T14:15:10.061Z,2.75
2019-05-13T14:16:28.547Z,2.08
2019-05-13T14:17:22.771Z,2.50
2019-05-13T14:18:28.397Z,1.98
2019-05-13T14:19:33.462Z,1.80
2019-05-13T14:20:39.049Z,1.87
2019-05-13T14:21:43.754Z,1.62
2019-05-13T14:22:56.583Z,2.05
2019-05-13T14:23:55.911Z,1.72
2019-05-13T14:25:01.344Z,1.98
2019-05-13T14:26:06.730Z,1.75
2019-05-13T14:27:12.614Z,2.10
2019-05-13T14:28:18.008Z,1.57
2019-05-13T14:29:37.470Z,2.00
2019-05-13T14:30:31.291Z,2.50
2019-05-13T14:31:37.224Z,2.22
2019-05-13T14:32:42.621Z,1.92
2019-05-13T14:33:51.756Z,1.90
2019-05-13T14:35:17.948Z,1.90
2019-05-13T14:36:23.840Z,2.08
2019-05-13T14:37:31.277Z,1.80
2019-05-13T14:38:36.709Z,2.37
2019-05-13T14:39:41.430Z,1.65
2019-05-13T14:40:46.962Z,2.00
2019-05-13T14:41:52.316Z,1.87
2019-05-13T14:42:58.111Z,1.77
2019-05-13T14:44:03.849Z,2.08
2019-05-13T14:45:12.220Z,2.25
2019-05-13T14:46:16.799Z,1.75
2019-05-13T14:47:21.964Z,1.90
2019-05-13T14:48:26.764Z,1.80
2019-05-13T14:49:31.921Z,1.95
2019-05-13T14:50:36.844Z,1.70
2019-05-13T14:51:42.770Z,1.87
2019-05-13T14:52:47.589Z,1.67
2019-05-13T14:53:52.859Z,2.00
2019-05-13T14:54:58.233Z,1.80
2019-05-13T14:56:03.743Z,2.10
2019-05-13T14:57:11.958Z,1.72
2019-05-13T14:58:16.081Z,1.80
2019-05-13T14:59:22.054Z,1.95
2019-05-13T15:00:27.504Z,1.57